Archiv-/Tagesdaten

--Timestamp---	Temp	Chill	HIndex	Humid	Dewpt	 Wind 	HiWind	WindDir	Rain 	Barom	Solar	 ET  	 UV 
--------------	----	-----	------	-----	-----	------	------	-------	-----	-----	-----	-----	----
20101020 00:00	6.9	4.4	6.9	85	4.5	13	26	270	0.0	1005.9	0	0.025	0.0
20101020 00:05	6.9	4.4	6.9	85	4.5	13	24	248	0.0	1005.7	0	0.000	0.0
20101020 00:10	6.9	3.9	6.9	85	4.5	16	42	248	0.0	1005.6	0	0.000	0.0
20101020 00:15	6.9	3.9	6.9	85	4.5	16	37	270	0.0	1005.6	0	0.000	0.0
20101020 00:20	6.9	3.5	6.9	85	4.5	19	34	248	0.0	1005.6	0	0.000	0.0
20101020 00:25	6.9	4.7	6.9	85	4.5	11	21	270	0.0	1005.6	0	0.000	0.0
20101020 00:30	6.8	4.9	6.8	86	4.7	10	18	270	0.0	1005.6	0	0.000	0.0
20101020 00:35	6.8	4.0	6.8	87	4.8	14	32	292	0.0	1005.7	0	0.000	0.0
20101020 00:40	6.7	3.9	6.7	87	4.7	14	24	292	0.2	1005.9	0	0.000	0.0
20101020 00:45	6.3	2.6	6.3	87	4.3	21	40	292	0.6	1006.1	0	0.000	0.0
20101020 00:50	5.9	2.8	5.9	88	4.1	16	29	292	0.4	1006.1	0	0.000	0.0
20101020 00:55	5.6	2.1	5.6	88	3.7	18	31	292	0.2	1006.4	0	0.000	0.0
20101020 01:00	5.2	1.7	5.2	88	3.4	18	34	292	0.4	1006.3	0	0.025	0.0
20101020 01:05	5.0	1.6	5.0	89	3.3	16	26	292	0.2	1006.1	0	0.000	0.0
20101020 01:10	4.8	1.9	4.8	89	3.2	13	24	292	0.0	1005.9	0	0.000	0.0
20101020 01:15	4.8	2.5	4.8	89	3.1	10	18	292	0.0	1006.0	0	0.000	0.0
20101020 01:20	4.7	3.3	4.7	90	3.2	6	11	292	0.2	1005.9	0	0.000	0.0
20101020 01:25	4.7	2.7	4.7	90	3.2	8	16	270	0.0	1006.0	0	0.000	0.0
20101020 01:30	4.7	2.7	4.7	90	3.2	8	16	270	0.0	1006.2	0	0.000	0.0
20101020 01:35	4.6	2.3	4.6	90	3.1	10	19	270	0.0	1006.2	0	0.000	0.0
20101020 01:40	4.6	2.7	4.6	90	3.1	8	18	292	0.0	1006.0	0	0.000	0.0
20101020 01:45	4.6	3.1	4.6	90	3.1	6	10	270	0.0	1005.9	0	0.000	0.0
20101020 01:50	4.6	3.1	4.6	90	3.1	6	11	248	0.0	1005.7	0	0.000	0.0
20101020 01:55	4.6	4.6	4.6	90	3.1	5	10	270	0.0	1005.8	0	0.000	0.0
20101020 02:00	4.6	4.6	4.6	91	3.2	5	11	270	0.0	1005.7	0	0.000	0.0
20101020 02:05	4.6	3.1	4.6	91	3.2	6	14	225	0.0	1005.8	0	0.000	0.0
20101020 02:10	4.6	4.6	4.6	91	3.2	5	10	248	0.0	1005.9	0	0.000	0.0
20101020 02:15	4.6	2.6	4.6	91	3.2	8	11	248	0.0	1005.9	0	0.000	0.0
20101020 02:20	4.6	2.7	4.6	91	3.3	8	16	225	0.0	1005.9	0	0.000	0.0
20101020 02:25	4.6	2.7	4.6	91	3.3	8	16	225	0.0	1005.9	0	0.000	0.0
20101020 02:30	4.7	2.7	4.7	91	3.3	8	14	248	0.0	1005.9	0	0.000	0.0
20101020 02:35	4.7	2.8	4.7	91	3.4	8	14	225	0.0	1005.7	0	0.000	0.0
20101020 02:40	4.8	2.9	4.8	91	3.4	8	19	225	0.2	1005.6	0	0.000	0.0
20101020 02:45	4.8	2.5	4.8	91	3.4	10	21	225	0.0	1005.5	0	0.000	0.0
20101020 02:50	4.8	2.2	4.8	91	3.5	11	18	225	0.0	1005.5	0	0.000	0.0
20101020 02:55	4.8	1.8	4.8	90	3.3	13	26	248	0.2	1005.5	0	0.000	0.0
20101020 03:00	4.7	2.1	4.7	90	3.2	11	19	270	0.0	1005.4	0	0.000	0.0
20101020 03:05	4.7	2.0	4.7	89	3.0	11	21	248	0.0	1005.6	0	0.000	0.0
20101020 03:10	4.7	2.4	4.7	89	3.0	10	19	248	0.0	1005.5	0	0.000	0.0
20101020 03:15	4.7	2.0	4.7	89	3.0	11	24	248	0.0	1005.5	0	0.000	0.0
20101020 03:20	4.6	2.7	4.6	89	3.0	8	16	248	0.0	1005.5	0	0.000	0.0
20101020 03:25	4.6	3.1	4.6	89	2.9	6	11	248	0.0	1005.4	0	0.000	0.0
20101020 03:30	4.5	3.0	4.5	89	2.8	6	11	248	0.0	1005.4	0	0.000	0.0
20101020 03:35	4.5	2.5	4.5	89	2.8	8	18	225	0.0	1005.4	0	0.000	0.0
20101020 03:40	4.5	2.5	4.5	89	2.8	8	16	225	0.0	1005.4	0	0.000	0.0
20101020 03:45	4.5	2.5	4.5	89	2.8	8	16	225	0.0	1005.3	0	0.000	0.0
20101020 03:50	4.5	4.5	4.5	90	3.0	5	11	225	0.0	1005.4	0	0.000	0.0
20101020 03:55	4.5	3.0	4.5	90	3.0	6	16	248	0.0	1005.5	0	0.000	0.0
20101020 04:00	4.5	2.5	4.5	90	3.0	8	18	248	0.0	1005.5	0	0.000	0.0
20101020 04:05	4.5	2.5	4.5	89	2.8	8	19	248	0.0	1005.5	0	0.000	0.0
20101020 04:10	4.5	2.2	4.5	89	2.8	10	18	248	0.0	1005.4	0	0.000	0.0
20101020 04:15	4.5	2.2	4.5	89	2.8	10	23	248	0.0	1005.4	0	0.000	0.0
20101020 04:20	4.6	1.9	4.6	90	3.1	11	23	248	0.0	1005.5	0	0.000	0.0
20101020 04:25	4.6	1.9	4.6	90	3.1	11	19	248	0.0	1005.5	0	0.000	0.0
20101020 04:30	4.6	2.3	4.6	90	3.1	10	23	248	0.0	1005.5	0	0.000	0.0
20101020 04:35	4.6	3.1	4.6	90	3.1	6	13	248	0.0	1005.4	0	0.000	0.0
20101020 04:40	4.5	2.5	4.5	90	3.0	8	16	248	0.0	1005.4	0	0.000	0.0
20101020 04:45	4.5	2.2	4.5	90	3.0	10	19	248	0.0	1005.4	0	0.000	0.0
20101020 04:50	4.4	2.5	4.4	90	2.9	8	14	248	0.0	1005.5	0	0.000	0.0
20101020 04:55	4.4	2.5	4.4	90	2.9	8	18	248	0.0	1005.6	0	0.000	0.0
20101020 05:00	4.4	2.1	4.4	90	2.9	10	18	248	0.0	1005.6	0	0.000	0.0
20101020 05:05	4.4	1.7	4.4	90	2.9	11	18	248	0.2	1005.8	0	0.000	0.0
20101020 05:10	4.3	1.6	4.3	90	2.8	11	19	248	0.0	1006.0	0	0.000	0.0
20101020 05:15	4.3	1.5	4.3	90	2.8	11	19	248	0.2	1006.0	0	0.000	0.0
20101020 05:20	4.2	1.8	4.2	90	2.7	10	19	248	0.0	1006.1	0	0.000	0.0
20101020 05:25	4.1	1.0	4.1	91	2.7	13	23	248	0.4	1006.2	0	0.000	0.0
20101020 05:30	4.0	2.0	4.0	91	2.7	8	16	248	0.2	1006.1	0	0.000	0.0
20101020 05:35	3.9	1.9	3.9	91	2.6	8	18	248	0.0	1006.0	0	0.000	0.0
20101020 05:40	3.9	2.4	3.9	91	2.6	6	11	225	0.2	1005.8	0	0.000	0.0
20101020 05:45	3.9	2.3	3.9	91	2.6	6	11	225	0.0	1005.9	0	0.000	0.0
20101020 05:50	3.9	3.9	3.9	91	2.6	5	10	248	0.0	1006.1	0	0.000	0.0
20101020 05:55	3.9	1.9	3.9	91	2.6	8	14	248	0.0	1006.1	0	0.000	0.0
20101020 06:00	3.9	2.3	3.9	91	2.6	6	13	248	0.0	1006.2	0	0.000	0.0
20101020 06:05	3.9	1.8	3.9	91	2.6	8	16	248	0.0	1006.4	0	0.000	0.0
20101020 06:10	3.8	1.8	3.8	91	2.5	8	18	248	0.2	1006.6	0	0.000	0.0
20101020 06:15	3.8	1.4	3.8	91	2.5	10	19	248	0.0	1006.7	0	0.000	0.0
20101020 06:20	3.8	1.4	3.8	91	2.5	10	18	248	0.0	1006.8	0	0.000	0.0
20101020 06:25	3.8	0.6	3.8	91	2.4	13	23	248	0.0	1006.8	0	0.000	0.0
20101020 06:30	3.7	0.5	3.7	91	2.3	13	23	248	0.0	1006.8	0	0.000	0.0
20101020 06:35	3.6	0.7	3.6	91	2.2	11	21	248	0.0	1006.9	0	0.000	0.0
20101020 06:40	3.5	0.3	3.5	91	2.2	13	27	248	0.0	1007.1	0	0.000	0.0
20101020 06:45	3.5	0.3	3.5	91	2.2	13	24	270	0.0	1007.3	0	0.000	0.0
20101020 06:50	3.4	0.2	3.4	91	2.1	13	24	248	0.0	1007.3	0	0.000	0.0
20101020 06:55	3.4	-0.1	3.4	91	2.1	14	27	248	0.0	1007.4	0	0.000	0.0
20101020 07:00	3.4	-0.4	3.4	90	1.9	16	26	248	0.0	1007.6	0	0.000	0.0
20101020 07:05	3.4	-0.1	3.4	90	1.9	14	26	248	0.0	1007.7	0	0.000	0.0
20101020 07:10	3.4	-0.6	3.4	90	1.9	18	29	248	0.0	1007.8	0	0.000	0.0
20101020 07:15	3.4	-0.1	3.4	90	1.9	14	27	248	0.2	1007.7	0	0.000	0.0
20101020 07:20	3.3	-0.5	3.3	90	1.9	16	27	248	0.2	1007.7	0	0.000	0.0
20101020 07:25	3.3	-0.3	3.3	90	1.8	14	24	248	0.0	1007.7	0	0.000	0.0
20101020 07:30	3.3	-0.3	3.3	90	1.8	14	29	248	0.0	1007.8	0	0.000	0.0
20101020 07:35	3.3	-0.3	3.3	90	1.8	14	24	248	0.0	1007.9	0	0.000	0.0
20101020 07:40	3.3	0.0	3.3	90	1.8	13	31	248	0.0	1008.0	0	0.000	0.0
20101020 07:45	3.2	-0.1	3.2	90	1.7	13	23	248	0.0	1008.0	0	0.000	0.0
20101020 07:50	3.2	-0.3	3.2	90	1.7	14	31	248	0.0	1008.1	0	0.000	0.0
20101020 07:55	3.2	-0.6	3.2	90	1.7	16	27	248	0.0	1008.3	0	0.000	0.0
20101020 08:00	3.2	-0.6	3.2	90	1.7	16	24	248	0.0	1008.4	2	0.000	0.0
20101020 08:05	3.2	-0.1	3.2	90	1.7	13	24	248	0.0	1008.4	7	0.000	0.0
20101020 08:10	3.2	-0.3	3.2	90	1.7	14	31	248	0.2	1008.6	5	0.000	0.0
20101020 08:15	3.2	-0.1	3.2	90	1.7	13	21	248	0.0	1008.6	11	0.000	0.0
20101020 08:20	3.2	-0.1	3.2	90	1.7	13	24	248	0.0	1008.6	21	0.000	0.0
20101020 08:25	3.2	-0.3	3.2	90	1.7	14	24	248	0.0	1008.7	29	0.000	0.0
20101020 08:30	3.2	-0.3	3.2	90	1.7	14	26	248	0.0	1008.8	33	0.000	0.0
20101020 08:35	3.2	-0.3	3.2	90	1.7	14	24	248	0.0	1008.8	32	0.000	0.0
20101020 08:40	3.2	-0.3	3.2	90	1.7	14	24	248	0.2	1008.8	30	0.000	0.0
20101020 08:45	3.2	-0.1	3.2	90	1.7	13	26	248	0.0	1008.9	27	0.000	0.0
20101020 08:50	3.3	0.0	3.3	90	1.8	13	24	248	0.0	1008.9	31	0.000	0.0
20101020 08:55	3.3	-0.3	3.3	90	1.8	14	24	248	0.0	1009.0	31	0.000	0.0
20101020 09:00	3.3	0.4	3.3	90	1.9	11	19	270	0.0	1009.0	36	0.025	0.0
20101020 09:05	3.4	0.5	3.4	90	1.9	11	23	248	0.0	1009.2	52	0.000	0.0
20101020 09:10	3.4	0.2	3.4	90	2.0	13	24	248	0.0	1009.2	49	0.000	0.0
20101020 09:15	3.5	0.3	3.5	90	2.0	13	19	248	0.0	1009.2	42	0.000	0.0
20101020 09:20	3.6	0.7	3.6	90	2.1	11	18	248	0.0	1009.2	44	0.000	0.0
20101020 09:25	3.6	1.0	3.6	90	2.1	10	18	248	0.0	1009.3	53	0.000	0.0
20101020 09:30	3.6	1.1	3.6	90	2.1	10	19	248	0.0	1009.2	59	0.000	0.0
20101020 09:35	3.6	0.1	3.6	90	2.1	14	21	248	0.0	1009.3	58	0.000	0.0
20101020 09:40	3.7	0.8	3.7	90	2.2	11	23	248	0.0	1009.3	92	0.000	0.3
20101020 09:45	3.8	1.0	3.8	90	2.3	11	23	248	0.0	1009.3	104	0.000	0.5
20101020 09:50	4.0	1.2	4.0	90	2.5	11	19	248	0.0	1009.4	92	0.000	0.5
20101020 09:55	4.1	1.0	4.1	90	2.6	13	26	248	0.0	1009.4	103	0.000	0.6
20101020 10:00	4.1	1.0	4.1	89	2.5	13	24	248	0.0	1009.4	98	0.025	0.5
20101020 10:05	4.2	1.5	4.2	89	2.6	11	21	248	0.0	1009.3	104	0.000	0.6
20101020 10:10	4.3	1.2	4.3	89	2.6	13	24	248	0.0	1009.3	92	0.000	0.7
20101020 10:15	4.3	0.7	4.3	88	2.5	16	26	270	0.0	1009.4	89	0.000	0.7
20101020 10:20	4.3	1.3	4.3	88	2.5	13	27	270	0.0	1009.5	96	0.000	0.7
20101020 10:25	4.4	1.2	4.4	88	2.6	14	24	270	0.0	1009.5	100	0.000	0.6
20101020 10:30	4.6	1.6	4.6	88	2.7	13	21	270	0.0	1009.5	107	0.000	0.7
20101020 10:35	4.7	1.7	4.7	88	2.9	13	26	270	0.0	1009.6	135	0.000	0.9
20101020 10:40	4.7	2.1	4.7	87	2.7	11	26	270	0.0	1009.6	131	0.000	0.9
20101020 10:45	4.8	2.2	4.8	87	2.9	11	19	270	0.0	1009.5	117	0.000	0.9
20101020 10:50	4.9	1.7	4.9	86	2.7	14	26	270	0.0	1009.5	134	0.000	1.1
20101020 10:55	5.0	2.1	5.0	86	2.9	13	23	248	0.0	1009.5	116	0.000	1.1
20101020 11:00	5.2	2.9	5.2	86	3.0	10	21	248	0.0	1009.5	144	0.051	1.1
20101020 11:05	5.3	2.8	5.3	85	3.0	11	19	270	0.0	1009.5	142	0.000	0.9
20101020 11:10	5.4	2.9	5.4	85	3.1	11	23	248	0.0	1009.5	100	0.000	0.6
20101020 11:15	5.3	2.8	5.3	84	2.9	11	23	270	0.0	1009.5	72	0.000	0.1
20101020 11:20	5.3	2.3	5.3	84	2.9	14	24	270	0.0	1009.5	120	0.000	0.8
20101020 11:25	5.3	2.5	5.3	84	2.9	13	24	270	0.0	1009.4	121	0.000	0.8
20101020 11:30	5.4	2.6	5.4	84	2.9	13	23	270	0.0	1009.4	183	0.000	1.0
20101020 11:35	5.6	2.8	5.6	84	3.1	13	23	270	0.0	1009.4	230	0.000	1.1
20101020 11:40	5.7	2.7	5.7	83	3.0	14	24	270	0.0	1009.5	150	0.000	0.9
20101020 11:45	5.7	2.5	5.7	81	2.7	16	24	270	0.0	1009.4	184	0.000	1.1
20101020 11:50	5.8	3.1	5.8	81	2.8	13	26	270	0.0	1009.5	217	0.000	1.4
20101020 11:55	6.0	3.9	6.0	82	3.2	10	21	270	0.0	1009.5	223	0.000	1.3
20101020 12:00	6.1	3.5	6.1	81	3.1	13	21	270	0.0	1009.6	187	0.076	1.1
20101020 12:05	6.2	3.5	6.2	81	3.2	13	29	270	0.0	1009.6	167	0.000	1.0
20101020 12:10	6.2	2.8	6.2	80	3.0	18	29	270	0.0	1009.6	185	0.000	1.1
20101020 12:15	6.2	3.1	6.2	80	3.0	16	29	270	0.0	1009.6	212	0.000	1.3
20101020 12:20	6.3	3.4	6.3	80	3.1	14	27	270	0.0	1009.5	209	0.000	1.2
20101020 12:25	6.4	3.3	6.4	80	3.2	16	27	270	0.0	1009.5	190	0.000	1.1
20101020 12:30	6.4	3.4	6.4	79	3.1	16	26	270	0.0	1009.5	150	0.000	0.9
20101020 12:35	6.5	3.7	6.5	80	3.3	14	26	270	0.0	1009.5	137	0.000	0.9
20101020 12:40	6.5	4.2	6.5	80	3.3	11	23	270	0.0	1009.6	88	0.000	0.7
20101020 12:45	6.4	3.1	6.4	79	3.0	18	32	248	0.0	1009.5	147	0.000	0.9
20101020 12:50	6.4	3.6	6.4	81	3.4	14	21	270	0.0	1009.6	172	0.000	1.1
20101020 12:55	6.3	2.8	6.3	81	3.3	19	32	270	0.0	1009.5	163	0.000	1.0
20101020 13:00	6.2	2.8	6.2	82	3.3	18	32	248	0.0	1009.6	133	0.102	1.0
20101020 13:05	6.1	3.0	6.1	83	3.4	16	31	248	0.0	1009.7	192	0.000	1.2
20101020 13:10	6.2	3.3	6.2	83	3.5	14	29	248	0.0	1009.7	161	0.000	1.2
20101020 13:15	6.3	3.2	6.3	83	3.6	16	23	270	0.0	1009.7	190	0.000	1.1
20101020 13:20	6.2	3.3	6.2	83	3.5	14	27	270	0.0	1009.7	70	0.000	0.4
20101020 13:25	5.9	2.1	5.9	83	3.2	21	35	270	0.0	1009.8	56	0.000	0.2
20101020 13:30	5.7	2.7	5.7	85	3.3	14	27	248	0.2	1009.9	127	0.000	0.8
20101020 13:35	5.7	2.9	5.7	86	3.5	13	24	270	0.0	1009.9	114	0.000	0.7
20101020 13:40	5.6	2.6	5.6	87	3.6	14	27	270	0.0	1009.9	149	0.000	0.9
20101020 13:45	5.7	2.4	5.7	87	3.7	16	29	270	0.0	1009.9	99	0.000	0.7
20101020 13:50	5.6	2.4	5.6	87	3.6	16	27	270	0.0	1010.0	75	0.000	0.5
20101020 13:55	5.5	2.2	5.5	87	3.5	16	29	270	0.0	1010.1	110	0.000	0.8
20101020 14:00	5.4	2.2	5.4	87	3.5	16	29	248	0.0	1010.1	87	0.076	0.4
20101020 14:05	5.3	1.8	5.3	87	3.3	18	32	248	0.0	1010.1	60	0.000	0.0
20101020 14:10	5.3	1.5	5.3	87	3.3	19	31	248	0.2	1010.1	50	0.000	0.0
20101020 14:15	5.1	0.7	5.1	87	3.1	24	37	248	0.4	1010.3	37	0.000	0.0
20101020 14:20	4.9	0.9	4.9	88	3.1	21	35	270	0.0	1010.2	71	0.000	0.1
20101020 14:25	4.9	1.3	4.9	89	3.3	18	29	270	0.2	1010.2	87	0.000	0.6
20101020 14:30	4.9	1.5	4.9	89	3.3	16	29	270	0.0	1010.3	56	0.000	0.0
20101020 14:35	4.9	1.5	4.9	89	3.2	16	32	270	0.2	1010.3	35	0.000	0.0
20101020 14:40	4.9	1.5	4.9	90	3.4	16	24	270	0.0	1010.4	52	0.000	0.1
20101020 14:45	5.0	1.6	5.0	90	3.5	16	29	270	0.0	1010.4	111	0.000	0.6
20101020 14:50	5.1	1.7	5.1	90	3.6	16	27	270	0.0	1010.4	124	0.000	0.6
20101020 14:55	5.2	2.4	5.2	90	3.7	13	29	270	0.0	1010.3	134	0.000	0.6
20101020 15:00	5.3	2.0	5.3	90	3.8	16	31	270	0.0	1010.4	138	0.051	0.7
20101020 15:05	5.4	1.7	5.4	89	3.7	19	32	270	0.0	1010.5	190	0.000	0.7
20101020 15:10	5.6	1.7	5.6	89	3.9	21	37	292	0.0	1010.5	262	0.000	0.9
20101020 15:15	5.7	1.7	5.7	88	3.9	23	34	292	0.0	1010.5	256	0.000	1.0
20101020 15:20	5.8	2.0	5.8	87	3.8	21	34	292	0.0	1010.5	249	0.000	0.8
20101020 15:25	6.0	2.6	6.0	87	4.0	18	31	270	0.0	1010.6	154	0.000	0.6
20101020 15:30	6.1	2.5	6.1	86	3.9	19	35	292	0.0	1010.7	88	0.000	0.0
20101020 15:35	5.9	2.1	5.9	85	3.6	21	35	270	0.0	1010.6	84	0.000	0.0
20101020 15:40	5.8	1.7	5.8	84	3.3	24	35	270	0.0	1010.7	115	0.000	0.3
20101020 15:45	5.9	2.7	5.9	85	3.6	16	27	292	0.0	1010.8	85	0.000	0.1
20101020 15:50	6.0	2.8	6.0	85	3.7	16	27	270	0.0	1010.9	225	0.000	0.8
20101020 15:55	6.4	3.2	6.4	85	4.1	18	27	270	0.0	1010.9	399	0.000	0.9
20101020 16:00	6.8	3.4	6.8	82	3.9	19	31	292	0.0	1010.7	356	0.102	0.7
20101020 16:05	6.9	3.8	6.9	81	3.9	18	27	292	0.0	1010.8	163	0.000	0.5
20101020 16:10	6.7	3.5	6.7	79	3.3	18	29	270	0.0	1010.8	71	0.000	0.0
20101020 16:15	6.5	3.5	6.5	80	3.3	16	31	292	0.0	1010.8	66	0.000	0.0
20101020 16:20	6.4	3.9	6.4	81	3.4	13	21	292	0.0	1010.9	146	0.000	0.3
20101020 16:25	6.4	3.2	6.4	80	3.2	18	26	292	0.0	1011.0	121	0.000	0.1
20101020 16:30	6.4	4.2	6.4	81	3.4	11	23	270	0.0	1011.0	78	0.000	0.0
20101020 16:35	6.3	3.7	6.3	81	3.3	13	21	292	0.0	1011.1	75	0.000	0.0
20101020 16:40	6.5	3.7	6.5	81	3.5	14	27	292	0.0	1011.0	191	0.000	0.0
20101020 16:45	6.5	3.5	6.5	80	3.3	16	27	292	0.0	1011.2	62	0.000	0.0
20101020 16:50	6.4	3.2	6.4	80	3.2	18	34	270	0.0	1011.2	114	0.000	0.0
20101020 16:55	6.6	3.3	6.6	79	3.2	18	29	292	0.0	1011.2	125	0.000	0.0
20101020 17:00	6.7	3.7	6.7	78	3.2	16	31	292	0.0	1011.3	145	0.076	0.0
20101020 17:05	6.7	4.2	6.7	79	3.3	13	27	315	0.0	1011.6	39	0.000	0.0
20101020 17:10	6.5	3.7	6.5	80	3.3	14	24	292	0.0	1011.8	63	0.000	0.0
20101020 17:15	6.3	4.0	6.3	81	3.3	11	19	292	0.0	1011.8	83	0.000	0.0
20101020 17:20	6.1	3.5	6.1	81	3.1	13	23	292	0.0	1011.9	47	0.000	0.0
20101020 17:25	5.9	3.6	5.9	81	2.9	11	19	292	0.0	1011.9	43	0.000	0.0
20101020 17:30	5.8	3.4	5.8	82	3.0	11	23	292	0.0	1012.1	47	0.000	0.0
20101020 17:35	5.8	3.7	5.8	82	2.9	10	19	292	0.0	1012.2	41	0.000	0.0
20101020 17:40	5.7	3.3	5.7	82	2.9	11	18	270	0.0	1012.3	25	0.000	0.0
20101020 17:45	5.7	3.5	5.7	82	2.8	10	19	270	0.0	1012.4	15	0.000	0.0
20101020 17:50	5.7	3.9	5.7	82	2.8	8	19	292	0.0	1012.5	10	0.000	0.0
20101020 17:55	5.7	3.9	5.7	82	2.8	8	18	270	0.0	1012.5	8	0.000	0.0
20101020 18:00	5.7	3.2	5.7	81	2.7	11	26	270	0.0	1012.6	10	0.025	0.0
20101020 18:05	5.7	3.0	5.7	80	2.5	13	23	248	0.0	1012.7	7	0.000	0.0
20101020 18:10	5.8	2.8	5.8	77	2.1	14	29	270	0.0	1012.8	0	0.000	0.0
20101020 18:15	5.8	3.4	5.8	77	2.1	11	19	270	0.0	1012.9	0	0.000	0.0
20101020 18:20	5.8	2.9	5.8	76	1.9	14	23	270	0.0	1013.0	0	0.000	0.0
20101020 18:25	5.8	2.9	5.8	76	1.9	14	29	270	0.0	1013.1	0	0.000	0.0
20101020 18:30	5.8	3.4	5.8	77	2.1	11	19	270	0.0	1013.3	0	0.000	0.0
20101020 18:35	5.8	3.4	5.8	77	2.1	11	19	270	0.0	1013.3	0	0.000	0.0
20101020 18:40	5.8	3.7	5.8	77	2.1	10	18	270	0.0	1013.3	0	0.000	0.0
20101020 18:45	5.8	4.1	5.8	77	2.1	8	14	270	0.0	1013.5	0	0.000	0.0
20101020 18:50	5.7	4.4	5.7	78	2.2	6	11	270	0.0	1013.6	0	0.000	0.0
20101020 18:55	5.7	4.4	5.7	79	2.4	6	11	248	0.0	1013.7	0	0.000	0.0
20101020 19:00	5.7	3.2	5.7	78	2.1	11	18	248	0.0	1013.8	0	0.025	0.0
20101020 19:05	5.7	3.5	5.7	79	2.3	10	18	225	0.0	1013.9	0	0.000	0.0
20101020 19:10	5.7	2.7	5.7	82	2.8	14	21	248	0.0	1013.9	0	0.000	0.0
20101020 19:15	5.6	2.8	5.6	82	2.7	13	21	248	0.0	1014.0	0	0.000	0.0
20101020 19:20	5.4	2.9	5.4	83	2.8	11	19	225	0.0	1014.0	0	0.000	0.0
20101020 19:25	5.3	2.8	5.3	83	2.7	11	18	225	0.0	1014.2	0	0.000	0.0
20101020 19:30	5.3	2.2	5.3	84	2.8	14	26	248	0.0	1014.3	0	0.000	0.0
20101020 19:35	5.2	2.1	5.2	84	2.7	14	24	248	0.2	1014.4	0	0.000	0.0
20101020 19:40	5.1	1.3	5.1	85	2.8	19	34	248	0.0	1014.5	0	0.000	0.0
20101020 19:45	5.0	2.4	5.0	86	2.9	11	18	248	0.0	1014.6	0	0.000	0.0
20101020 19:50	4.9	2.3	4.9	87	3.0	11	21	248	0.0	1014.7	0	0.000	0.0
20101020 19:55	4.8	2.9	4.8	87	2.9	8	19	270	0.2	1014.6	0	0.000	0.0
20101020 20:00	4.8	2.5	4.8	87	2.8	10	18	248	0.0	1014.7	0	0.025	0.0
20101020 20:05	4.8	2.5	4.8	88	3.0	10	23	248	0.0	1014.9	0	0.000	0.0
20101020 20:10	4.7	1.8	4.7	88	2.9	13	19	248	0.4	1015.2	0	0.000	0.0
20101020 20:15	4.7	1.4	4.7	88	2.9	14	27	292	0.8	1015.4	0	0.000	0.0
20101020 20:20	4.2	-0.2	4.2	87	2.3	23	32	270	0.6	1015.4	0	0.000	0.0
20101020 20:25	3.8	0.3	3.8	88	2.0	14	26	270	0.0	1015.6	0	0.000	0.0
20101020 20:30	3.7	-0.1	3.7	89	2.0	16	29	270	0.0	1015.6	0	0.000	0.0
20101020 20:35	3.7	0.5	3.7	89	2.0	13	23	270	0.0	1015.7	0	0.000	0.0
20101020 20:40	3.7	0.0	3.7	90	2.2	16	29	270	0.0	1015.7	0	0.000	0.0
20101020 20:45	3.7	-0.2	3.7	89	2.1	18	29	270	0.0	1015.8	0	0.000	0.0
20101020 20:50	3.8	-0.2	3.8	89	2.1	18	31	270	0.0	1015.8	0	0.000	0.0
20101020 20:55	3.8	0.2	3.8	89	2.2	16	29	270	0.0	1015.9	0	0.000	0.0
20101020 21:00	3.9	-0.4	3.9	89	2.2	21	42	270	0.0	1016.0	0	0.025	0.0
20101020 21:05	3.8	-0.7	3.8	88	2.0	23	34	292	0.2	1016.1	0	0.000	0.0
20101020 21:10	3.7	-1.1	3.7	88	1.9	24	39	292	0.2	1016.1	0	0.000	0.0
20101020 21:15	3.6	-0.9	3.6	88	1.8	21	34	270	0.2	1016.3	0	0.000	0.0
20101020 21:20	3.4	-0.3	3.4	89	1.8	16	24	270	0.0	1016.3	0	0.000	0.0
20101020 21:25	3.4	-0.4	3.4	89	1.7	16	27	270	0.0	1016.4	0	0.000	0.0
20101020 21:30	3.4	-0.4	3.4	89	1.7	16	27	270	0.0	1016.5	0	0.000	0.0
20101020 21:35	3.3	-0.5	3.3	89	1.7	16	26	270	0.0	1016.5	0	0.000	0.0
20101020 21:40	3.4	-0.1	3.4	90	1.9	14	24	270	0.0	1016.6	0	0.000	0.0
20101020 21:45	3.4	-0.3	3.4	90	2.0	16	26	270	0.0	1016.7	0	0.000	0.0
20101020 21:50	3.4	0.2	3.4	90	2.0	13	24	270	0.0	1016.8	0	0.000	0.0
20101020 21:55	3.4	-0.9	3.4	90	1.9	19	35	270	0.0	1016.8	0	0.000	0.0
20101020 22:00	3.3	-0.9	3.3	89	1.7	19	31	270	0.0	1017.0	0	0.025	0.0
20101020 22:05	3.2	-0.8	3.2	90	1.7	18	32	270	0.2	1016.9	0	0.000	0.0
20101020 22:10	3.2	-0.4	3.2	90	1.7	14	24	270	0.0	1016.9	0	0.000	0.0
20101020 22:15	3.1	-0.2	3.1	90	1.6	13	21	270	0.0	1017.0	0	0.000	0.0
20101020 22:20	3.1	-0.5	3.1	90	1.6	14	27	292	0.0	1017.1	0	0.000	0.0
20101020 22:25	3.2	-0.4	3.2	90	1.7	14	24	292	0.0	1017.3	0	0.000	0.0
20101020 22:30	3.2	-0.7	3.2	90	1.7	16	29	292	0.0	1017.4	0	0.000	0.0
20101020 22:35	3.1	-1.1	3.1	90	1.6	18	31	270	0.2	1017.4	0	0.000	0.0
20101020 22:40	3.0	-1.3	3.0	90	1.5	19	31	292	0.2	1017.7	0	0.000	0.0
20101020 22:45	2.9	-1.3	2.9	90	1.4	18	29	270	0.0	1017.7	0	0.000	0.0
20101020 22:50	2.8	-0.8	2.8	91	1.5	14	26	270	0.0	1017.7	0	0.000	0.0
20101020 22:55	2.8	-0.3	2.8	91	1.5	11	18	270	0.2	1017.8	0	0.000	0.0
20101020 23:00	2.7	-0.0	2.7	91	1.3	10	19	270	0.0	1017.9	0	0.025	0.0
20101020 23:05	2.6	0.3	2.6	91	1.3	8	23	270	0.2	1017.8	0	0.000	0.0
20101020 23:10	2.6	-0.2	2.6	91	1.2	10	18	270	0.0	1017.8	0	0.000	0.0
20101020 23:15	2.5	-0.2	2.5	91	1.2	10	16	270	0.0	1018.0	0	0.000	0.0
20101020 23:20	2.4	-0.3	2.4	91	1.1	10	21	270	0.2	1018.2	0	0.000	0.0
20101020 23:25	2.3	-0.4	2.3	91	1.0	10	19	270	0.2	1018.2	0	0.000	0.0
20101020 23:30	2.2	-0.9	2.2	91	0.9	11	21	270	0.2	1018.2	0	0.000	0.0
20101020 23:35	2.1	-1.1	2.1	91	0.7	11	21	270	0.0	1018.3	0	0.000	0.0
20101020 23:40	2.1	-1.8	2.1	91	0.7	14	26	270	0.0	1018.3	0	0.000	0.0
20101020 23:45	1.9	-1.6	1.9	91	0.6	13	24	270	0.2	1018.4	0	0.000	0.0
20101020 23:50	1.9	-1.7	1.9	91	0.6	13	21	270	0.0	1018.5	0	0.000	0.0
20101020 23:55	1.9	-1.0	1.9	91	0.6	10	19	248	0.0	1018.4	0	0.000	0.0



Please note the license to use and transfer of this data:
http://creativecommons.org/licenses/by-nc-sa/3.0/deed.en

Bitte beachten sie die Lizenz zur Verwertung und Weitergabe der Daten:
http://creativecommons.org/licenses/by-nc-sa/3.0/deed.de

zurück zur Übersicht der Archivdaten (Monats und Tagesdaten)

Cookies helfen bei der Bereitstellung von Inhalten. Durch die Nutzung dieser Seiten erklärst du dich damit einverstanden, dass Cookies auf deinem Rechner gespeichert werden. Weitere Information